createdAt,value
2023-02-16T00:00:57.650Z,4.97
2023-02-16T00:03:28.783Z,5.38
2023-02-16T00:06:00.403Z,5.38
2023-02-16T00:08:31.827Z,6.40
2023-02-16T00:13:54.284Z,5.13
2023-02-16T00:16:26.695Z,4.80
2023-02-16T00:18:58.167Z,6.38
2023-02-16T00:21:29.097Z,4.10
2023-02-16T00:24:00.570Z,5.50
2023-02-16T00:26:35.327Z,5.57
2023-02-16T00:29:07.170Z,4.88
2023-02-16T00:31:38.771Z,4.70
2023-02-16T00:36:50.132Z,4.95
2023-02-16T00:39:21.241Z,4.18
2023-02-16T00:44:34.420Z,4.78
2023-02-16T00:47:23.167Z,4.60
2023-02-16T00:49:56.261Z,8.48
2023-02-16T00:52:44.180Z,6.28
2023-02-16T00:55:18.881Z,5.95
2023-02-16T00:58:05.340Z,4.88
2023-02-16T01:00:39.142Z,5.05
2023-02-16T01:03:21.217Z,4.85
2023-02-16T01:06:12.014Z,6.68
2023-02-16T01:09:01.635Z,5.43
2023-02-16T01:11:35.200Z,4.95
2023-02-16T01:14:07.212Z,5.78
2023-02-16T01:16:43.909Z,14.77
2023-02-16T01:19:15.840Z,4.88
2023-02-16T01:21:46.949Z,4.32
2023-02-16T01:24:18.214Z,6.30
2023-02-16T01:26:52.860Z,5.03
2023-02-16T01:29:24.614Z,5.38
2023-02-16T01:34:27.035Z,5.68
2023-02-16T01:37:01.820Z,5.35
2023-02-16T01:39:32.900Z,7.57
2023-02-16T01:42:15.404Z,4.38
2023-02-16T01:45:03.769Z,4.45
2023-02-16T01:47:43.446Z,5.68
2023-02-16T01:50:29.088Z,8.05
2023-02-16T01:53:02.801Z,11.38
2023-02-16T01:55:40.697Z,8.00
2023-02-16T01:58:24.859Z,5.50
2023-02-16T02:00:56.341Z,4.40
2023-02-16T02:06:23.759Z,2.92
2023-02-16T02:09:10.969Z,5.97
2023-02-16T02:11:52.466Z,5.00
2023-02-16T02:14:31.494Z,5.85
2023-02-16T02:17:09.222Z,5.25
2023-02-16T02:20:03.915Z,5.90
2023-02-16T02:23:34.610Z,6.82
2023-02-16T02:26:24.533Z,4.78
2023-02-16T02:29:16.850Z,3.85
2023-02-16T02:32:07.058Z,5.88
2023-02-16T02:34:51.175Z,4.00
2023-02-16T02:37:25.364Z,5.73
2023-02-16T02:40:21.223Z,4.38
2023-02-16T02:43:01.377Z,6.00
2023-02-16T02:45:45.436Z,4.75
2023-02-16T02:48:17.420Z,5.07
2023-02-16T02:51:13.002Z,3.88
2023-02-16T02:54:26.147Z,7.35
2023-02-16T02:57:48.037Z,6.55
2023-02-16T03:00:41.990Z,7.00
2023-02-16T03:03:16.990Z,6.78
2023-02-16T03:05:59.829Z,6.57
2023-02-16T03:08:32.573Z,6.50
2023-02-16T03:11:26.459Z,6.13
2023-02-16T03:14:05.131Z,7.15
2023-02-16T03:17:18.200Z,7.82
2023-02-16T03:20:10.338Z,4.80
2023-02-16T03:23:02.235Z,7.13
2023-02-16T03:25:54.321Z,6.47
2023-02-16T03:28:46.372Z,4.45
2023-02-16T03:31:21.170Z,5.88
2023-02-16T03:33:56.069Z,7.22
2023-02-16T03:36:29.634Z,6.00
2023-02-16T03:39:01.371Z,9.63
2023-02-16T03:41:37.556Z,5.85
2023-02-16T03:44:09.065Z,7.82
2023-02-16T03:46:40.240Z,7.07
2023-02-16T03:49:11.476Z,4.95
2023-02-16T03:51:42.420Z,5.35
2023-02-16T03:54:14.567Z,4.55
2023-02-16T03:56:45.890Z,8.23
2023-02-16T03:59:17.595Z,5.40
2023-02-16T04:04:19.485Z,6.63
2023-02-16T04:09:21.538Z,4.78
2023-02-16T04:12:10.674Z,5.13
2023-02-16T04:14:43.681Z,6.35
2023-02-16T04:17:14.865Z,5.97
2023-02-16T04:19:45.982Z,5.43
2023-02-16T04:22:17.321Z,4.43
2023-02-16T04:24:48.260Z,4.80
2023-02-16T04:27:19.521Z,5.10
2023-02-16T04:29:50.776Z,21.00
2023-02-16T04:32:22.210Z,14.63
2023-02-16T04:34:53.668Z,10.25
2023-02-16T04:37:24.755Z,7.30
2023-02-16T04:39:56.027Z,8.43
2023-02-16T04:42:27.812Z,7.05
2023-02-16T04:44:59.075Z,6.32
2023-02-16T04:47:30.202Z,7.60
2023-02-16T04:50:01.346Z,7.03
2023-02-16T04:52:35.712Z,7.32
2023-02-16T04:55:09.222Z,4.82
2023-02-16T04:57:41.880Z,9.20
2023-02-16T05:00:14.164Z,6.07
2023-02-16T05:02:45.424Z,7.78
2023-02-16T05:05:16.862Z,5.70
2023-02-16T05:07:47.931Z,7.00
2023-02-16T05:10:19.128Z,7.88
2023-02-16T05:13:08.223Z,7.30
2023-02-16T05:15:39.355Z,7.20
2023-02-16T05:18:10.766Z,7.25
2023-02-16T05:20:59.588Z,6.95
2023-02-16T05:23:30.712Z,8.20
2023-02-16T05:26:01.982Z,6.90
2023-02-16T05:28:33.286Z,7.43
2023-02-16T05:31:04.941Z,7.30
2023-02-16T05:33:36.110Z,7.30
2023-02-16T05:36:07.475Z,8.45
2023-02-16T05:38:38.399Z,6.82
2023-02-16T05:41:09.604Z,7.50
2023-02-16T05:43:40.616Z,5.80
2023-02-16T05:46:12.315Z,7.35
2023-02-16T05:51:14.386Z,5.97
2023-02-16T05:53:45.693Z,7.13
2023-02-16T05:56:17.508Z,6.82
2023-02-16T05:58:48.849Z,6.88
2023-02-16T06:01:20.713Z,6.60
2023-02-16T06:03:51.777Z,8.40
2023-02-16T06:08:54.023Z,8.07
2023-02-16T06:11:40.552Z,8.00
2023-02-16T06:14:22.550Z,6.43
2023-02-16T06:16:54.137Z,6.28
2023-02-16T06:19:25.388Z,6.00
2023-02-16T06:21:56.685Z,6.50
2023-02-16T06:24:27.842Z,7.82
2023-02-16T06:26:59.034Z,4.28
2023-02-16T06:29:30.232Z,3.90
2023-02-16T06:32:01.503Z,3.05
2023-02-16T06:34:32.659Z,2.88
2023-02-16T06:37:03.632Z,5.07
2023-02-16T06:39:34.776Z,5.13
2023-02-16T06:42:06.146Z,7.25
2023-02-16T06:44:38.768Z,8.38
2023-02-16T06:47:10.017Z,8.05
2023-02-16T06:49:41.128Z,5.30
2023-02-16T06:52:12.427Z,4.78
2023-02-16T06:54:43.670Z,2.65
2023-02-16T06:57:14.564Z,6.00
2023-02-16T06:59:45.601Z,5.63
2023-02-16T07:02:17.729Z,4.13
2023-02-16T07:04:48.822Z,8.02
2023-02-16T07:07:19.817Z,4.68
2023-02-16T07:09:50.812Z,5.25
2023-02-16T07:12:21.707Z,3.28
2023-02-16T07:14:52.802Z,4.85
2023-02-16T07:17:23.898Z,6.80
2023-02-16T07:19:55.102Z,6.05
2023-02-16T07:22:26.795Z,5.10
2023-02-16T07:24:58.877Z,8.65
2023-02-16T07:27:30.271Z,4.38
2023-02-16T07:30:01.683Z,5.68
2023-02-16T07:32:34.430Z,3.92
2023-02-16T07:35:06.124Z,6.13
2023-02-16T07:37:37.197Z,4.93
2023-02-16T07:40:09.334Z,7.20
2023-02-16T07:42:40.553Z,5.28
2023-02-16T07:45:12.826Z,6.82
2023-02-16T07:47:44.054Z,6.68
2023-02-16T07:50:15.194Z,4.30
2023-02-16T07:52:46.200Z,8.00
2023-02-16T07:55:17.222Z,10.35
2023-02-16T07:57:50.820Z,5.88
2023-02-16T08:00:22.507Z,5.15
2023-02-16T08:02:54.819Z,5.25
2023-02-16T08:05:26.453Z,4.05
2023-02-16T08:07:57.786Z,3.03
2023-02-16T08:10:29.032Z,2.30
2023-02-16T08:12:59.966Z,2.80
2023-02-16T08:15:30.967Z,3.22
2023-02-16T08:18:02.134Z,3.13
2023-02-16T08:20:53.893Z,2.10
2023-02-16T08:23:24.702Z,3.45
2023-02-16T08:25:55.655Z,2.67
2023-02-16T08:28:29.954Z,2.72
2023-02-16T08:31:05.652Z,2.88
2023-02-16T08:33:36.899Z,1.75
2023-02-16T08:36:10.986Z,1.90
2023-02-16T08:38:44.744Z,3.55
2023-02-16T08:41:15.934Z,3.22
2023-02-16T08:43:47.381Z,2.80
2023-02-16T08:46:19.266Z,2.50
2023-02-16T08:48:50.630Z,2.92
2023-02-16T08:51:22.516Z,4.05
2023-02-16T08:53:54.142Z,3.72
2023-02-16T08:56:25.262Z,3.72
2023-02-16T08:58:56.688Z,4.00
2023-02-16T09:01:28.036Z,3.65
2023-02-16T09:04:00.447Z,3.83
2023-02-16T09:06:31.754Z,4.38
2023-02-16T09:09:02.686Z,2.97
2023-02-16T09:11:34.095Z,3.00
2023-02-16T09:16:39.990Z,5.50
2023-02-16T09:19:11.487Z,3.15
2023-02-16T09:21:43.177Z,3.80
2023-02-16T09:24:14.182Z,3.65
2023-02-16T09:26:45.972Z,2.72
2023-02-16T09:29:17.118Z,3.38
2023-02-16T09:31:48.336Z,2.95
2023-02-16T09:34:25.364Z,3.42
2023-02-16T09:36:58.035Z,4.82
2023-02-16T09:39:30.244Z,2.97
2023-02-16T09:42:23.840Z,2.70
2023-02-16T09:45:15.513Z,3.28
2023-02-16T09:47:49.166Z,3.92
2023-02-16T09:50:52.727Z,3.42
2023-02-16T09:53:40.957Z,2.85
2023-02-16T09:56:21.668Z,2.95
2023-02-16T09:59:31.609Z,2.92
2023-02-16T10:02:31.658Z,2.90
2023-02-16T10:05:40.878Z,2.30
2023-02-16T10:08:40.411Z,2.72
2023-02-16T10:11:34.114Z,3.28
2023-02-16T10:14:31.750Z,3.72
2023-02-16T10:17:09.182Z,3.60
2023-02-16T10:20:03.703Z,3.05
2023-02-16T10:22:54.005Z,3.63
2023-02-16T10:26:00.306Z,3.38
2023-02-16T10:28:34.771Z,4.88
2023-02-16T10:31:31.566Z,4.05
2023-02-16T10:34:12.093Z,3.00
2023-02-16T10:36:56.036Z,2.08
2023-02-16T10:39:47.819Z,3.58
2023-02-16T10:42:34.529Z,3.20
2023-02-16T10:45:27.217Z,3.53
2023-02-16T10:47:58.731Z,3.45
2023-02-16T10:50:41.541Z,2.78
2023-02-16T10:53:21.356Z,4.90
2023-02-16T10:55:52.513Z,4.45
2023-02-16T10:58:31.877Z,2.67
2023-02-16T11:01:22.252Z,2.38
2023-02-16T11:03:57.251Z,2.45
2023-02-16T11:06:30.461Z,3.45
2023-02-16T11:09:03.357Z,3.00
2023-02-16T11:11:41.357Z,2.85
2023-02-16T11:14:25.474Z,3.08
2023-02-16T11:17:14.941Z,2.63
2023-02-16T11:20:01.644Z,3.13
2023-02-16T11:22:38.933Z,1.55
2023-02-16T11:25:30.475Z,2.45
2023-02-16T11:28:06.741Z,3.80
2023-02-16T11:30:40.891Z,2.65
2023-02-16T11:33:28.366Z,3.50
2023-02-16T11:36:00.115Z,3.75
2023-02-16T11:41:06.074Z,4.55
2023-02-16T11:43:41.452Z,1.15
2023-02-16T11:46:20.993Z,2.67
2023-02-16T11:48:52.663Z,3.30
2023-02-16T11:51:37.486Z,3.25
2023-02-16T11:54:12.571Z,1.95
2023-02-16T11:56:44.750Z,2.85
2023-02-16T11:59:15.674Z,2.55
2023-02-16T12:02:06.072Z,2.45
2023-02-16T12:04:52.549Z,4.07
2023-02-16T12:07:56.573Z,2.33
2023-02-16T12:11:00.120Z,4.57
2023-02-16T12:13:47.610Z,3.53
2023-02-16T12:16:25.196Z,1.90
2023-02-16T12:19:25.736Z,1.92
2023-02-16T12:22:18.189Z,1.35
2023-02-16T12:24:54.290Z,3.90
2023-02-16T12:27:37.768Z,3.42
2023-02-16T12:30:38.488Z,2.00
2023-02-16T12:33:45.080Z,3.08
2023-02-16T12:36:34.779Z,2.05
2023-02-16T12:39:21.544Z,3.53
2023-02-16T12:41:55.754Z,3.45
2023-02-16T12:44:47.493Z,3.72
2023-02-16T12:47:28.151Z,2.20
2023-02-16T12:50:04.843Z,2.42
2023-02-16T12:52:40.128Z,3.40
2023-02-16T12:55:20.852Z,4.60
2023-02-16T12:58:06.389Z,2.78
2023-02-16T13:00:42.971Z,2.75
2023-02-16T13:03:34.992Z,2.83
2023-02-16T13:06:27.949Z,1.63
2023-02-16T13:09:35.473Z,3.20
2023-02-16T13:12:18.581Z,1.70
2023-02-16T13:14:54.111Z,3.28
2023-02-16T13:17:42.254Z,2.60
2023-02-16T13:20:23.219Z,2.97
2023-02-16T13:23:25.060Z,2.60
2023-02-16T13:26:14.460Z,3.25
2023-02-16T13:29:07.265Z,2.92
2023-02-16T13:32:01.973Z,2.50
2023-02-16T13:34:48.744Z,3.60
2023-02-16T13:37:31.884Z,4.40
2023-02-16T13:40:36.811Z,3.65
2023-02-16T13:43:21.219Z,2.10
2023-02-16T13:45:55.884Z,4.88
2023-02-16T13:48:34.932Z,3.63
2023-02-16T13:51:27.827Z,4.20
2023-02-16T13:54:05.522Z,5.43
2023-02-16T13:56:38.664Z,3.65
2023-02-16T13:59:29.620Z,3.53
2023-02-16T14:02:01.122Z,4.63
2023-02-16T14:04:35.121Z,4.97
2023-02-16T14:07:09.476Z,3.40
2023-02-16T14:09:41.164Z,5.32
2023-02-16T14:12:18.129Z,4.88
2023-02-16T14:14:55.432Z,2.65
2023-02-16T14:17:35.253Z,5.45
2023-02-16T14:20:30.434Z,3.30
2023-02-16T14:23:02.206Z,3.92
2023-02-16T14:25:36.626Z,3.28
2023-02-16T14:28:33.609Z,4.53
2023-02-16T14:31:24.510Z,5.18
2023-02-16T14:34:33.860Z,5.75
2023-02-16T14:37:20.255Z,5.72
2023-02-16T14:40:07.415Z,3.90
2023-02-16T14:42:39.190Z,4.32
2023-02-16T14:45:10.605Z,5.43
2023-02-16T14:47:57.270Z,3.70
2023-02-16T14:50:56.440Z,5.45
2023-02-16T14:53:45.528Z,3.55
2023-02-16T14:56:24.200Z,4.38
2023-02-16T14:59:23.510Z,3.58
2023-02-16T15:01:54.752Z,4.40
2023-02-16T15:04:30.828Z,4.15
2023-02-16T15:07:04.988Z,3.97
2023-02-16T15:09:37.394Z,3.50
2023-02-16T15:12:26.135Z,3.72
2023-02-16T15:15:04.157Z,3.97
2023-02-16T15:17:38.488Z,2.92
2023-02-16T15:20:35.533Z,4.45
2023-02-16T15:23:23.193Z,3.90
2023-02-16T15:26:03.465Z,4.53
2023-02-16T15:28:37.445Z,3.90
2023-02-16T15:31:13.244Z,4.32
2023-02-16T15:33:46.356Z,4.40
2023-02-16T15:36:24.335Z,6.05
2023-02-16T15:38:55.507Z,4.90
2023-02-16T15:41:38.439Z,4.55
2023-02-16T15:44:37.679Z,4.07
2023-02-16T15:47:15.250Z,3.63
2023-02-16T15:49:46.777Z,6.90
2023-02-16T15:52:21.919Z,6.07
2023-02-16T15:54:53.353Z,5.90
2023-02-16T15:57:32.201Z,4.95
2023-02-16T16:00:24.985Z,4.65
2023-02-16T16:02:57.818Z,5.85
2023-02-16T16:05:31.585Z,6.45
2023-02-16T16:08:03.626Z,7.32
2023-02-16T16:10:38.975Z,4.45
2023-02-16T16:13:26.868Z,4.50
2023-02-16T16:16:11.394Z,6.65
2023-02-16T16:18:44.727Z,5.25
2023-02-16T16:21:26.481Z,6.40
2023-02-16T16:26:52.317Z,4.82
2023-02-16T16:29:43.903Z,6.60
2023-02-16T16:32:26.723Z,5.13
2023-02-16T16:34:58.253Z,6.43
2023-02-16T16:40:11.200Z,5.05
2023-02-16T16:43:08.144Z,7.03
2023-02-16T16:45:45.620Z,5.15
2023-02-16T16:48:22.976Z,4.45
2023-02-16T16:51:12.665Z,5.32
2023-02-16T16:53:46.160Z,8.25
2023-02-16T16:56:17.294Z,5.85
2023-02-16T16:58:55.454Z,6.18
2023-02-16T17:01:29.206Z,5.88
2023-02-16T17:04:00.862Z,8.07
2023-02-16T17:06:32.600Z,5.55
2023-02-16T17:09:04.641Z,6.40
2023-02-16T17:11:38.367Z,5.63
2023-02-16T17:14:20.285Z,4.95
2023-02-16T17:16:52.759Z,5.10
2023-02-16T17:19:25.584Z,6.70
2023-02-16T17:21:56.593Z,6.07
2023-02-16T17:24:28.183Z,5.20
2023-02-16T17:26:59.613Z,5.28
2023-02-16T17:29:31.068Z,5.03
2023-02-16T17:32:02.515Z,6.95
2023-02-16T17:37:06.931Z,6.95
2023-02-16T17:39:38.469Z,7.57
2023-02-16T17:42:13.724Z,9.05
2023-02-16T17:44:45.067Z,7.57
2023-02-16T17:47:18.037Z,6.25
2023-02-16T17:49:49.100Z,7.68
2023-02-16T17:52:20.241Z,6.93
2023-02-16T17:54:51.717Z,6.38
2023-02-16T17:57:22.709Z,8.57
2023-02-16T17:59:54.162Z,6.32
2023-02-16T18:02:25.427Z,6.35
2023-02-16T18:04:57.520Z,6.15
2023-02-16T18:07:29.365Z,6.78
2023-02-16T18:10:00.794Z,8.75
2023-02-16T18:12:33.142Z,6.25
2023-02-16T18:15:04.890Z,6.07
2023-02-16T18:17:36.100Z,5.60
2023-02-16T18:20:07.768Z,8.82
2023-02-16T18:22:39.093Z,7.95
2023-02-16T18:25:10.851Z,8.05
2023-02-16T18:27:42.970Z,6.80
2023-02-16T18:30:15.475Z,8.07
2023-02-16T18:32:47.116Z,8.35
2023-02-16T18:35:18.633Z,8.35
2023-02-16T18:40:22.796Z,7.68
2023-02-16T18:42:53.800Z,8.02
2023-02-16T18:45:25.902Z,7.53
2023-02-16T18:50:27.251Z,6.18
2023-02-16T18:52:58.481Z,6.00
2023-02-16T18:55:34.235Z,8.27
2023-02-16T18:58:08.419Z,7.68
2023-02-16T19:00:39.734Z,7.13
2023-02-16T19:03:11.428Z,7.88
2023-02-16T19:05:42.919Z,5.85
2023-02-16T19:08:13.982Z,8.70
2023-02-16T19:10:45.179Z,8.68
2023-02-16T19:13:16.286Z,6.30
2023-02-16T19:15:48.133Z,6.75
2023-02-16T19:18:19.040Z,9.07
2023-02-16T19:20:50.496Z,7.32
2023-02-16T19:23:21.720Z,5.85
2023-02-16T19:25:53.012Z,7.57
2023-02-16T19:28:24.380Z,9.13
2023-02-16T19:30:55.611Z,6.78
2023-02-16T19:33:26.681Z,6.50
2023-02-16T19:36:08.595Z,8.48
2023-02-16T19:38:40.427Z,9.68
2023-02-16T19:41:17.451Z,9.00
2023-02-16T19:43:48.592Z,6.70
2023-02-16T19:46:20.379Z,7.38
2023-02-16T19:48:51.713Z,6.45
2023-02-16T19:51:23.493Z,7.10
2023-02-16T19:53:54.743Z,6.97
2023-02-16T19:56:27.177Z,5.90
2023-02-16T19:59:01.352Z,5.85
2023-02-16T20:01:32.477Z,6.28
2023-02-16T20:04:04.386Z,8.55
2023-02-16T20:06:41.924Z,8.65
2023-02-16T20:09:13.872Z,6.38
2023-02-16T20:11:45.257Z,6.85
2023-02-16T20:14:16.775Z,7.05
2023-02-16T20:16:49.262Z,5.75
2023-02-16T20:19:20.950Z,6.75
2023-02-16T20:21:52.166Z,6.82
2023-02-16T20:24:23.266Z,6.68
2023-02-16T20:26:55.511Z,5.00
2023-02-16T20:29:27.075Z,5.95
2023-02-16T20:32:00.228Z,5.85
2023-02-16T20:34:35.032Z,6.13
2023-02-16T20:37:06.756Z,6.45
2023-02-16T20:39:37.972Z,5.90
2023-02-16T20:42:09.899Z,6.22
2023-02-16T20:44:41.400Z,7.05
2023-02-16T20:47:12.885Z,8.23
2023-02-16T20:49:44.206Z,4.68
2023-02-16T20:52:15.969Z,4.97
2023-02-16T20:54:47.649Z,5.82
2023-02-16T20:57:26.873Z,5.63
2023-02-16T20:59:58.595Z,6.25
2023-02-16T21:02:29.521Z,4.57
2023-02-16T21:05:00.662Z,7.22
2023-02-16T21:07:33.464Z,5.30
2023-02-16T21:10:04.697Z,5.20
2023-02-16T21:12:35.957Z,4.78
2023-02-16T21:15:08.135Z,5.82
2023-02-16T21:17:40.229Z,5.55
2023-02-16T21:20:11.936Z,6.15
2023-02-16T21:22:42.975Z,7.68
2023-02-16T21:25:14.368Z,5.55
2023-02-16T21:27:45.851Z,5.50
2023-02-16T21:30:17.305Z,6.25
2023-02-16T21:32:50.417Z,7.45
2023-02-16T21:35:22.500Z,5.28
2023-02-16T21:37:53.688Z,5.00
2023-02-16T21:40:42.974Z,4.88
2023-02-16T21:43:14.168Z,4.68
2023-02-16T21:45:45.305Z,4.85
2023-02-16T21:48:34.938Z,6.30
2023-02-16T21:51:05.928Z,6.28
2023-02-16T21:53:36.871Z,6.55
2023-02-16T21:56:23.536Z,4.45
2023-02-16T21:58:54.856Z,5.63
2023-02-16T22:01:31.680Z,6.78
2023-02-16T22:04:03.335Z,5.32
2023-02-16T22:06:37.176Z,4.45
2023-02-16T22:09:11.056Z,4.78
2023-02-16T22:11:42.433Z,4.85
2023-02-16T22:14:13.796Z,4.80
2023-02-16T22:19:19.263Z,4.65
2023-02-16T22:21:52.642Z,4.93
2023-02-16T22:24:24.080Z,4.47
2023-02-16T22:26:55.336Z,4.45
2023-02-16T22:29:26.562Z,5.60
2023-02-16T22:31:57.771Z,4.22
2023-02-16T22:36:59.436Z,5.68
2023-02-16T22:39:31.478Z,5.60
2023-02-16T22:42:02.959Z,5.65
2023-02-16T22:44:34.069Z,4.72
2023-02-16T22:47:05.504Z,3.20
2023-02-16T22:52:07.923Z,4.28
2023-02-16T22:54:39.614Z,4.38
2023-02-16T22:57:10.754Z,6.10
2023-02-16T22:59:42.925Z,4.30
2023-02-16T23:02:14.030Z,4.13
2023-02-16T23:04:45.195Z,7.05
2023-02-16T23:07:16.410Z,4.70
2023-02-16T23:09:47.353Z,4.15
2023-02-16T23:12:18.749Z,5.05
2023-02-16T23:17:21.369Z,3.03
2023-02-16T23:19:53.445Z,5.15
2023-02-16T23:22:24.661Z,3.80
2023-02-16T23:27:46.357Z,4.50
2023-02-16T23:30:17.543Z,6.25
2023-02-16T23:35:20.145Z,6.80
2023-02-16T23:37:51.646Z,3.05
2023-02-16T23:40:23.106Z,5.53
2023-02-16T23:42:54.701Z,4.28
2023-02-16T23:47:56.395Z,4.13
2023-02-16T23:50:28.219Z,4.38
2023-02-16T23:52:59.604Z,4.00
2023-02-16T23:55:30.733Z,3.30
